createdAt,value
2023-10-03T00:02:43.813Z,78.21318
2023-10-03T00:07:46.456Z,72.38831
2023-10-03T00:12:47.859Z,74.18378
2023-10-03T00:17:49.513Z,73.61874
2023-10-03T00:22:50.924Z,72.60659
2023-10-03T00:27:52.385Z,74.39467
2023-10-03T00:32:53.976Z,79.93019
2023-10-03T00:37:55.516Z,81.87754
2023-10-03T00:42:57.476Z,79.42082
2023-10-03T00:47:58.927Z,87.07663
2023-10-03T00:53:00.348Z,89.66627
2023-10-03T00:58:01.777Z,86.00718
2023-10-03T01:03:03.502Z,85.96521
2023-10-03T01:08:05.943Z,92.42399
2023-10-03T01:13:07.692Z,91.41693
2023-10-03T01:18:09.252Z,98.04175
2023-10-03T01:23:10.815Z,98.80548
2023-10-03T01:28:12.213Z,100
2023-10-03T01:33:13.741Z,100
2023-10-03T01:38:15.323Z,100
2023-10-03T01:43:16.966Z,100
2023-10-03T01:48:18.529Z,100
2023-10-03T01:53:20.128Z,100
2023-10-03T01:58:21.602Z,100
2023-10-03T02:03:23.106Z,100
2023-10-03T02:08:24.846Z,100
2023-10-03T02:13:26.360Z,100
2023-10-03T02:18:27.889Z,100
2023-10-03T02:23:29.476Z,100
2023-10-03T02:28:32.176Z,100
2023-10-03T02:33:35.702Z,100
2023-10-03T02:38:37.399Z,100
2023-10-03T02:43:38.988Z,100
2023-10-03T02:48:40.561Z,100
2023-10-03T02:53:42.079Z,100
2023-10-03T02:58:43.558Z,100
2023-10-03T03:03:45.044Z,100
2023-10-03T03:08:46.861Z,100
2023-10-03T03:13:48.452Z,100
2023-10-03T03:18:49.815Z,100
2023-10-03T03:23:51.251Z,100
2023-10-03T03:28:52.839Z,100
2023-10-03T03:33:54.867Z,100
2023-10-03T03:38:56.498Z,100
2023-10-03T03:43:57.997Z,100
2023-10-03T03:48:59.708Z,100
2023-10-03T03:54:01.413Z,100
2023-10-03T03:59:03.177Z,100
2023-10-03T04:04:04.831Z,100
2023-10-03T04:09:09.216Z,100
2023-10-03T04:14:11.348Z,100
2023-10-03T04:19:12.833Z,100
2023-10-03T04:24:14.329Z,100
2023-10-03T04:29:16.780Z,100
2023-10-03T04:34:18.419Z,100
2023-10-03T04:39:19.976Z,100
2023-10-03T04:44:21.377Z,100
2023-10-03T04:49:22.790Z,100
2023-10-03T04:54:24.416Z,100
2023-10-03T04:59:25.934Z,100
2023-10-03T05:04:27.353Z,100
2023-10-03T05:09:28.765Z,100
2023-10-03T05:14:30.468Z,100
2023-10-03T05:19:31.919Z,100
2023-10-03T05:24:33.294Z,100
2023-10-03T05:29:34.913Z,100
2023-10-03T05:34:36.331Z,100
2023-10-03T05:39:37.710Z,100
2023-10-03T05:44:39.137Z,100
2023-10-03T05:49:41.185Z,100
2023-10-03T05:54:42.609Z,100
2023-10-03T05:59:44.056Z,100
2023-10-03T06:04:45.919Z,100
2023-10-03T06:09:47.326Z,100
2023-10-03T06:14:48.958Z,100
2023-10-03T06:19:50.394Z,100
2023-10-03T06:24:51.785Z,100
2023-10-03T06:29:53.211Z,100
2023-10-03T06:34:54.669Z,100
2023-10-03T06:39:56.039Z,100
2023-10-03T06:44:57.464Z,100
2023-10-03T06:49:58.868Z,100
2023-10-03T06:55:00.318Z,100
2023-10-03T07:00:01.990Z,100
2023-10-03T07:05:03.668Z,100
2023-10-03T07:10:05.463Z,100
2023-10-03T07:15:06.852Z,100
2023-10-03T07:20:08.488Z,100
2023-10-03T07:25:09.875Z,100
2023-10-03T07:30:11.733Z,100
2023-10-03T07:35:13.333Z,100
2023-10-03T07:40:14.844Z,100
2023-10-03T07:45:16.237Z,100
2023-10-03T07:50:17.625Z,100
2023-10-03T07:55:19.096Z,100
2023-10-03T08:00:21.281Z,100
2023-10-03T08:05:22.750Z,100
2023-10-03T08:10:24.173Z,100
2023-10-03T08:15:25.792Z,100
2023-10-03T08:20:28.046Z,100
2023-10-03T08:25:29.544Z,100
2023-10-03T08:30:31.230Z,100
2023-10-03T08:35:32.979Z,100
2023-10-03T08:40:34.512Z,100
2023-10-03T08:45:36.086Z,100
2023-10-03T08:50:37.694Z,100
2023-10-03T08:55:39.655Z,100
2023-10-03T09:00:41.344Z,100
2023-10-03T09:05:42.981Z,100
2023-10-03T09:10:44.568Z,100
2023-10-03T09:15:45.992Z,100
2023-10-03T09:20:47.473Z,100
2023-10-03T09:25:48.905Z,100
2023-10-03T09:30:50.293Z,100
2023-10-03T09:35:51.715Z,100
2023-10-03T09:40:53.126Z,100
2023-10-03T09:45:54.831Z,100
2023-10-03T09:50:56.866Z,100
2023-10-03T09:55:58.290Z,100
2023-10-03T10:00:59.774Z,100
2023-10-03T10:06:01.530Z,100
2023-10-03T10:11:03.265Z,100
2023-10-03T10:16:04.900Z,100
2023-10-03T10:21:07.005Z,100
2023-10-03T10:26:08.361Z,100
2023-10-03T10:31:09.809Z,100
2023-10-03T10:36:11.280Z,100
2023-10-03T10:41:12.666Z,100
2023-10-03T10:46:14.153Z,100
2023-10-03T10:51:15.612Z,100
2023-10-03T10:56:17.306Z,100
2023-10-03T11:01:18.970Z,100
2023-10-03T11:06:20.355Z,100
2023-10-03T11:11:21.914Z,100
2023-10-03T11:16:23.332Z,100
2023-10-03T11:21:24.773Z,100
2023-10-03T11:26:26.174Z,100
2023-10-03T11:31:27.648Z,100
2023-10-03T11:36:29.095Z,100
2023-10-03T11:41:30.553Z,100
2023-10-03T11:46:32.097Z,100
2023-10-03T11:51:33.521Z,100
2023-10-03T11:56:35.120Z,100
2023-10-03T12:01:36.710Z,100
2023-10-03T12:06:38.425Z,100
2023-10-03T12:11:39.813Z,100
2023-10-03T12:16:41.164Z,100
2023-10-03T12:21:42.619Z,100
2023-10-03T12:26:44.050Z,100
2023-10-03T12:31:45.618Z,100
2023-10-03T12:36:47.141Z,100
2023-10-03T12:41:48.673Z,100
2023-10-03T12:46:50.086Z,100
2023-10-03T12:51:51.535Z,100
2023-10-03T12:56:52.914Z,100
2023-10-03T13:01:54.360Z,100
2023-10-03T13:06:55.840Z,100
2023-10-03T13:11:57.321Z,100
2023-10-03T13:16:58.812Z,100
2023-10-03T13:22:00.453Z,100
2023-10-03T13:27:02.131Z,100
2023-10-03T13:32:03.786Z,100
2023-10-03T13:37:05.330Z,100
2023-10-03T13:42:06.948Z,100
2023-10-03T13:47:08.425Z,100
2023-10-03T13:52:09.858Z,100
2023-10-03T13:57:11.429Z,100
2023-10-03T14:02:13.164Z,100
2023-10-03T14:07:14.712Z,100
2023-10-03T14:12:16.282Z,100
2023-10-03T14:17:17.806Z,100
2023-10-03T14:22:19.230Z,100
2023-10-03T14:27:20.906Z,100
2023-10-03T14:32:22.421Z,100
2023-10-03T14:37:23.853Z,100
2023-10-03T14:42:25.299Z,100
2023-10-03T14:47:26.740Z,100
2023-10-03T14:52:28.304Z,100
2023-10-03T14:57:29.806Z,100
2023-10-03T15:02:31.370Z,100
2023-10-03T15:07:32.955Z,100
2023-10-03T15:12:34.367Z,100
2023-10-03T15:17:35.817Z,100
2023-10-03T15:22:37.448Z,100
2023-10-03T15:27:38.981Z,100
2023-10-03T15:32:40.819Z,100
2023-10-03T15:37:42.485Z,100
2023-10-03T15:42:43.992Z,100
2023-10-03T15:47:45.691Z,100
2023-10-03T15:52:47.174Z,100
2023-10-03T15:57:48.687Z,100
2023-10-03T16:02:50.228Z,100
2023-10-03T16:07:51.716Z,100
2023-10-03T16:12:53.299Z,100
2023-10-03T16:17:55.213Z,100
2023-10-03T16:22:56.684Z,100
2023-10-03T16:27:58.451Z,100
2023-10-03T16:33:00.193Z,100
2023-10-03T16:38:01.645Z,100
2023-10-03T16:43:03.104Z,100
2023-10-03T16:48:04.659Z,100
2023-10-03T16:53:06.073Z,100
2023-10-03T16:58:07.465Z,100
2023-10-03T17:03:09.229Z,100
2023-10-03T17:08:10.820Z,100
2023-10-03T17:13:12.338Z,95.97211
2023-10-03T17:18:14.106Z,99.96811
2023-10-03T17:23:15.723Z,97.34002
2023-10-03T17:28:17.484Z,86.65256
2023-10-03T17:33:19.004Z,73.77789
2023-10-03T17:38:20.526Z,75.39846
2023-10-03T17:43:21.890Z,61.52635
2023-10-03T17:48:23.657Z,76.15838
2023-10-03T17:53:25.133Z,79.31261
2023-10-03T17:58:26.626Z,65.93264
2023-10-03T18:03:28.185Z,66.7076
2023-10-03T18:08:29.637Z,66.16986
2023-10-03T18:13:31.003Z,68.00382
2023-10-03T18:18:32.560Z,61.52605
2023-10-03T18:23:34.255Z,72.20165
2023-10-03T18:28:35.735Z,68.455
2023-10-03T18:33:37.108Z,71.3294
2023-10-03T18:38:38.771Z,76.03043
2023-10-03T18:43:40.218Z,78.52028
2023-10-03T18:48:42.144Z,75.08701
2023-10-03T18:53:43.617Z,76.5371
2023-10-03T18:58:45.103Z,81.8457
2023-10-03T19:03:46.667Z,79.11138
2023-10-03T19:08:48.345Z,81.4964
2023-10-03T19:13:49.738Z,83.58988
2023-10-03T19:18:51.142Z,75.20245
2023-10-03T19:23:52.641Z,72.08444
2023-10-03T19:28:54.235Z,71.78921
2023-10-03T19:33:56.519Z,72.56638
2023-10-03T19:38:58.004Z,58.14428
2023-10-03T19:43:59.400Z,64.59252
2023-10-03T19:49:00.911Z,62.08503
2023-10-03T19:54:02.389Z,65.70996
2023-10-03T19:59:03.946Z,57.85328
2023-10-03T20:04:05.461Z,52.61971
2023-10-03T20:09:07.200Z,58.48494
2023-10-03T20:14:08.794Z,60.92345
2023-10-03T20:19:10.402Z,59.28166
2023-10-03T20:24:11.906Z,60.90867
2023-10-03T20:29:13.721Z,62.39633
2023-10-03T20:34:16.052Z,59.55512
2023-10-03T20:39:17.577Z,53.92723
2023-10-03T20:44:21.553Z,59.26513
2023-10-03T20:49:23.124Z,57.47226
2023-10-03T20:54:24.601Z,59.24641
2023-10-03T20:59:26.015Z,58.56546
2023-10-03T21:04:27.434Z,54.43125
2023-10-03T21:09:28.808Z,62.73453
2023-10-03T21:14:30.385Z,55.60171
2023-10-03T21:19:31.850Z,54.13891
2023-10-03T21:24:33.370Z,47.78871
2023-10-03T21:29:34.817Z,48.82025
2023-10-03T21:34:36.350Z,46.23418
2023-10-03T21:39:37.867Z,48.83374
2023-10-03T21:44:39.497Z,45.60582
2023-10-03T21:49:40.840Z,41.56262
2023-10-03T21:54:42.308Z,47.56822
2023-10-03T21:59:43.768Z,44.01796
2023-10-03T22:04:45.137Z,40.32746
2023-10-03T22:09:46.497Z,45.41159
2023-10-03T22:14:48.173Z,46.98888
2023-10-03T22:19:49.637Z,42.56015
2023-10-03T22:24:51.091Z,45.08785
2023-10-03T22:29:52.535Z,41.74375
2023-10-03T22:34:54.113Z,41.32572
2023-10-03T22:39:55.486Z,42.86958
2023-10-03T22:44:56.949Z,43.26458
2023-10-03T22:49:58.364Z,43.9362
2023-10-03T22:55:00.383Z,47.44072
2023-10-03T23:00:01.818Z,44.62281
2023-10-03T23:05:03.293Z,48.1121
2023-10-03T23:10:04.774Z,45.40055
2023-10-03T23:15:06.121Z,50.01763
2023-10-03T23:20:07.512Z,47.29524
2023-10-03T23:25:08.926Z,51.09421
2023-10-03T23:30:10.366Z,51.58614
2023-10-03T23:35:12.131Z,51.45534
2023-10-03T23:40:13.569Z,52.67094
2023-10-03T23:45:15.227Z,54.15803
2023-10-03T23:50:16.674Z,56.71433
2023-10-03T23:55:18.265Z,58.49741
